FAOR

Olifants River Bridge Landing Strip Airport

Olifants River Bridge, South Africa
METAR FAOR 240300Z 00000KT CAVOK 14/09 Q1025 NOSIG
Observed Flight Rules
Sep-24 @ 03:00 UTC (46 minutes ago) Visual Flight Rules
Visibility Clouds
10,000+ meters
  • Clear skies
Temperatures Readings
Current 14°C / 57°F
Dewpoint 9°C / 48°F
Humidity 72%
Altimeter 30.27" Hg
Pressure 1025 hPa
Elevation 1700
METAR FAOR 240300Z 00000KT CAVOK 14/09 Q1025 NOSIG
Observed Flight Rules
Sep-24 @ 03:00 UTC
(46 minutes ago)
VFR
Clouds
  • Clear skies
Temperature Dewpoint
14°C / 57°F 9°C / 48°F
Humidity Altimeter Pressure
72% 30.27" Hg 1025 hPa